Pistol River, Oregon
Current Conditions -  °F | °C
As of 8:38 AM on Friday 28 Nov 2014 (Local Time) from KBOK Reporting Station
Light Rain Light Rain  
Wind Chill: 12°   Ceiling: 2300
Heat Index: 12°   Visibility: 4mi
Dew Point: 12°   Wind: 8mph
Humidity: 100%   Direction: 150°SSE
Pressure: 29.8"   Gusts: 17mph
Location:  42.5771°N, 124.359°W
Report Text: KBOK 281638Z AUTO 15007G15KT 110V180 4SM -RA BR SCT018 BKN023 OVC043 12/12 A2980 RMK AO2 P0000
Loading
Personal Weather Stations






























Interactive Weather Map New forecast layout! Learn more

10-Day Weather Forecast

Advertisements
Track Severe Weather on mobile